• Join FlightAware (Why Join?)
  • Login
  • US Flag 
04:48AM EDT


 

Airport Tracker/Info


-or-


 

Live Flight TrackerFlight Track Log ✈ N320B ✈ 18-Jul-2013 ✈ KDUH - KHTL

Flight Track Log - Related Links

Times and Time Zones

All times are in EDT time to prevent confusion due to time zone crossing. See the N320B flight status page for this flight to view local times or setup timezone preferences in your user account.

Time Position Orientation Groundspeed Altitude Reporting Facility
EDT Latitude Longitude Course Direction KTS MPH feet Rate Location/Type
08:03PM 43.0906 -84.1678 345° North  Level Estimated
08:04PM 43.1269 -84.1819 344° North  Level Estimated
08:05PM 43.1632 -84.1959 344° North  Level Estimated
08:06PM 43.1995 -84.2100 344° North  Level Estimated
08:07PM 43.2356 -84.2240 344° North  Level Estimated
08:08PM 43.2718 -84.2381 344° North  Level Estimated
08:09PM 43.3079 -84.2522 344° North  Level Estimated
08:10PM 43.3441 -84.2663 344° North  Level Estimated
08:11PM 43.3802 -84.2804 344° North  Level Estimated
08:12PM 43.4164 -84.2945 344° North  Level Estimated
08:13PM 43.4525 -84.3086 344° North  Level Estimated
08:14PM 43.4887 -84.3228 344° North  Level Estimated
08:15PM 43.5248 -84.3370 344° North  Level Estimated
08:15PM 43.6581 -84.4492 344° North 151 174 6,500  Level Minneapolis Center
08:16PM 43.5610 -84.3512 344° North  Level Estimated
08:16PM 43.7003 -84.4597 350° North 153 176 6,500  Level Minneapolis Center
08:17PM 43.5971 -84.3654 344° North  Level Estimated
08:17PM 43.7425 -84.4708 349° North 154 177 6,500  Level Minneapolis Center
08:18PM 43.6332 -84.3796 344° North  Level Estimated
08:18PM 43.7928 -84.4844 349° North 154 177 6,500  Level Minneapolis Center
08:19PM 43.6694 -84.3938 344° North  Level Estimated
08:19PM 43.8350 -84.4950 350° North 155 178 6,500  Level Minneapolis Center
08:20PM 43.7055 -84.4081 344° North  Level Estimated
08:20PM 43.8769 -84.5061 349° North 154 177 6,500  Level Minneapolis Center
08:21PM 43.7416 -84.4224 344° North  Level Estimated
08:22PM 43.9196 -84.5347 334° Northwest  Level FlightAware Approximate
08:29PM 44.1883 -84.6346 350° North  Level FlightAware Approximate
08:30PM 44.2278 -84.6444 350° North  Level FlightAware Approximate
08:31PM 44.2673 -84.6535 352° North  Level FlightAware Approximate
08:32PM 44.3069 -84.6614 352° North  Level FlightAware Approximate
08:33PM 44.3467 -84.6667 North  Level FlightAware Approximate
08:34PM 44.3500 -84.6667 North  Level FlightAware Approximate
08:35PM 44.3599 -84.6695 North  Level Estimated
08:36PM 44.3599 -84.6695 North  Level Estimated
08:37PM 44.3599 -84.6695 North  Level Estimated
08:38PM 44.3599 -84.6695 North  Level Estimated
08:39PM 44.3599 -84.6695 North  Level Estimated
08:40PM 44.3599 -84.6695 North  Level Estimated